createdAt,value
2022-09-15T00:02:17.177Z,10.67
2022-09-15T00:05:20.280Z,10.71
2022-09-15T00:08:24.698Z,10.78
2022-09-15T00:11:31.937Z,10.80
2022-09-15T00:14:35.057Z,10.68
2022-09-15T00:17:38.387Z,10.52
2022-09-15T00:20:43.382Z,10.63
2022-09-15T00:23:48.460Z,10.71
2022-09-15T00:26:51.803Z,10.59
2022-09-15T00:29:56.109Z,10.49
2022-09-15T00:32:59.426Z,10.49
2022-09-15T00:36:06.485Z,10.54
2022-09-15T00:39:10.092Z,10.48
2022-09-15T00:42:22.665Z,10.52
2022-09-15T00:45:26.238Z,10.51
2022-09-15T00:48:30.606Z,10.58
2022-09-15T00:51:41.801Z,10.63
2022-09-15T00:55:02.781Z,10.78
2022-09-15T00:58:09.402Z,10.78
2022-09-15T01:01:15.481Z,10.71
2022-09-15T01:04:18.712Z,10.70
2022-09-15T01:07:35.876Z,10.77
2022-09-15T01:10:41.796Z,10.90
2022-09-15T01:13:46.111Z,11.03
2022-09-15T01:17:12.631Z,11.12
2022-09-15T01:20:53.337Z,11.13
2022-09-15T01:24:20.939Z,10.98
2022-09-15T01:28:01.152Z,11.12
2022-09-15T01:31:10.348Z,11.04
2022-09-15T01:34:19.830Z,11.06
2022-09-15T01:37:31.745Z,11.23
2022-09-15T01:40:51.040Z,11.35
2022-09-15T01:44:03.044Z,11.47
2022-09-15T01:47:10.731Z,11.63
2022-09-15T01:50:24.038Z,11.83
2022-09-15T01:53:28.827Z,11.88
2022-09-15T01:56:33.185Z,12.04
2022-09-15T01:59:36.829Z,12.16
2022-09-15T02:02:46.360Z,12.15
2022-09-15T02:06:03.223Z,12.14
2022-09-15T02:09:22.419Z,12.30
2022-09-15T02:12:37.794Z,12.47
2022-09-15T02:15:48.906Z,12.75
2022-09-15T02:19:36.794Z,13.10
2022-09-15T02:22:41.836Z,13.10
2022-09-15T02:25:52.161Z,13.26
2022-09-15T02:28:59.865Z,13.82
2022-09-15T02:32:07.437Z,14.23
2022-09-15T02:35:12.491Z,14.53
2022-09-15T02:38:16.113Z,14.47
2022-09-15T02:41:20.481Z,13.99
2022-09-15T02:44:24.192Z,13.69
2022-09-15T02:47:31.939Z,13.75
2022-09-15T02:50:34.859Z,13.68
2022-09-15T02:53:38.253Z,13.85
2022-09-15T02:56:41.917Z,14.19
2022-09-15T03:00:04.036Z,14.60
2022-09-15T03:03:10.174Z,14.86
2022-09-15T03:06:21.838Z,15.05
2022-09-15T03:09:25.235Z,14.84
2022-09-15T03:12:29.555Z,14.36
2022-09-15T03:15:34.252Z,14.20
2022-09-15T03:18:39.119Z,14.14
2022-09-15T03:21:42.510Z,14.21
2022-09-15T03:24:45.555Z,14.16
2022-09-15T03:27:48.835Z,14.29
2022-09-15T03:30:51.802Z,14.39
2022-09-15T03:33:56.563Z,14.17
2022-09-15T03:37:00.202Z,14.05
2022-09-15T03:40:04.459Z,13.96
2022-09-15T03:43:08.570Z,13.88
2022-09-15T03:46:12.875Z,13.88
2022-09-15T03:49:16.981Z,13.97
2022-09-15T03:52:20.628Z,13.97
2022-09-15T03:55:24.478Z,14.02
2022-09-15T03:58:30.734Z,13.79
2022-09-15T04:01:35.795Z,13.76
2022-09-15T04:04:39.554Z,13.61
2022-09-15T04:07:43.655Z,13.40
2022-09-15T04:10:46.841Z,13.23
2022-09-15T04:13:51.340Z,13.04
2022-09-15T04:16:55.323Z,12.86
2022-09-15T04:19:59.309Z,12.79
2022-09-15T04:23:02.972Z,12.60
2022-09-15T04:26:10.736Z,12.46
2022-09-15T04:29:17.959Z,12.37
2022-09-15T04:32:22.902Z,12.45
2022-09-15T04:35:26.688Z,12.46
2022-09-15T04:38:30.930Z,12.29
2022-09-15T04:41:35.058Z,12.15
2022-09-15T04:44:39.091Z,11.99
2022-09-15T04:47:42.871Z,11.86
2022-09-15T04:50:47.089Z,11.80
2022-09-15T04:53:52.238Z,11.62
2022-09-15T04:56:55.693Z,11.49
2022-09-15T04:59:59.326Z,11.49
2022-09-15T05:03:03.586Z,11.47
2022-09-15T05:06:09.451Z,11.52
2022-09-15T05:09:15.140Z,11.53
2022-09-15T05:12:19.205Z,11.34
2022-09-15T05:15:22.969Z,11.32
2022-09-15T05:18:27.114Z,11.39
2022-09-15T05:21:31.431Z,11.39
2022-09-15T05:24:35.189Z,11.36
2022-09-15T05:27:40.190Z,11.29
2022-09-15T05:30:44.524Z,11.21
2022-09-15T05:33:50.247Z,11.18
2022-09-15T05:36:53.935Z,11.21
2022-09-15T05:40:01.782Z,11.38
2022-09-15T05:43:06.832Z,11.58
2022-09-15T05:46:11.768Z,11.69
2022-09-15T05:49:15.520Z,11.62
2022-09-15T05:52:19.410Z,11.58
2022-09-15T05:55:23.793Z,11.65
2022-09-15T05:58:27.451Z,11.66
2022-09-15T06:01:32.229Z,11.72
2022-09-15T06:04:35.943Z,11.75
2022-09-15T06:07:40.361Z,11.78
2022-09-15T06:10:44.017Z,11.74
2022-09-15T06:13:48.375Z,11.74
2022-09-15T06:16:52.098Z,11.66
2022-09-15T06:19:55.955Z,11.60
2022-09-15T06:23:00.060Z,11.68
2022-09-15T06:26:19.509Z,11.84
2022-09-15T06:29:22.337Z,11.86
2022-09-15T06:32:25.663Z,11.92
2022-09-15T06:35:29.343Z,12.01
2022-09-15T06:38:32.755Z,12.02
2022-09-15T06:42:00.772Z,12.00
2022-09-15T06:45:05.379Z,11.99
2022-09-15T06:48:24.011Z,11.88
2022-09-15T06:51:32.187Z,11.89
2022-09-15T06:54:35.823Z,11.87
2022-09-15T06:57:39.825Z,11.79
2022-09-15T07:00:43.728Z,11.74
2022-09-15T07:03:48.032Z,11.71
2022-09-15T07:06:51.647Z,11.63
2022-09-15T07:09:56.596Z,11.56
2022-09-15T07:13:01.804Z,11.49
2022-09-15T07:16:08.233Z,11.39
2022-09-15T07:19:12.231Z,11.44
2022-09-15T07:22:16.288Z,11.50
2022-09-15T07:25:20.008Z,11.63
2022-09-15T07:28:24.041Z,11.78
2022-09-15T07:31:30.275Z,11.82
2022-09-15T07:34:34.777Z,11.90
2022-09-15T07:37:38.960Z,11.91
2022-09-15T07:40:43.073Z,11.88
2022-09-15T07:43:55.023Z,11.93
2022-09-15T07:46:58.332Z,11.94
2022-09-15T07:50:02.111Z,11.99
2022-09-15T07:53:06.155Z,11.99
2022-09-15T07:56:09.966Z,12.02
2022-09-15T07:59:13.645Z,12.00
2022-09-15T08:02:19.587Z,12.03
2022-09-15T08:05:28.915Z,12.11
2022-09-15T08:08:32.781Z,12.18
2022-09-15T08:11:36.477Z,12.28
2022-09-15T08:14:39.520Z,12.38
2022-09-15T08:17:43.414Z,12.38
2022-09-15T08:20:47.042Z,12.29
2022-09-15T08:23:59.072Z,12.15
2022-09-15T08:27:02.039Z,12.08
2022-09-15T08:30:07.742Z,11.92
2022-09-15T08:33:11.418Z,11.97
2022-09-15T08:36:14.555Z,12.00
2022-09-15T08:39:17.512Z,12.04
2022-09-15T08:42:22.889Z,12.02
2022-09-15T08:45:36.769Z,12.07
2022-09-15T08:48:47.030Z,12.12
2022-09-15T08:51:52.744Z,12.18
2022-09-15T08:54:59.840Z,12.18
2022-09-15T08:58:04.167Z,12.21
2022-09-15T09:01:18.697Z,12.27
2022-09-15T09:04:40.263Z,12.25
2022-09-15T09:08:20.242Z,12.39
2022-09-15T09:11:55.528Z,12.36
2022-09-15T09:15:07.812Z,12.34
2022-09-15T09:18:54.044Z,12.33
2022-09-15T09:22:04.259Z,12.31
2022-09-15T09:25:26.817Z,12.28
2022-09-15T09:28:59.382Z,12.37
2022-09-15T09:32:04.249Z,12.27
2022-09-15T09:35:32.109Z,12.27
2022-09-15T09:38:40.277Z,12.20
2022-09-15T09:41:45.528Z,12.17
2022-09-15T09:44:49.165Z,12.20
2022-09-15T09:47:56.340Z,12.09
2022-09-15T09:51:01.278Z,12.09
2022-09-15T09:54:16.780Z,12.13
2022-09-15T09:57:35.101Z,12.19
2022-09-15T10:00:42.407Z,12.18
2022-09-15T10:03:46.366Z,12.11
2022-09-15T10:06:50.514Z,11.92
2022-09-15T10:09:59.567Z,11.90
2022-09-15T10:13:04.791Z,11.86
2022-09-15T10:16:08.242Z,11.89
2022-09-15T10:19:15.609Z,11.85
2022-09-15T10:22:40.952Z,11.84
2022-09-15T10:25:58.706Z,11.79
2022-09-15T10:29:16.102Z,11.77
2022-09-15T10:32:28.943Z,11.70
2022-09-15T10:35:34.032Z,11.68
2022-09-15T10:38:46.469Z,11.69
2022-09-15T10:42:05.509Z,11.66
2022-09-15T10:45:17.176Z,11.54
2022-09-15T10:48:20.237Z,11.56
2022-09-15T10:51:32.180Z,11.59
2022-09-15T10:55:09.199Z,11.59
2022-09-15T10:58:39.913Z,11.58
2022-09-15T11:02:02.038Z,11.54
2022-09-15T11:05:31.772Z,11.52
2022-09-15T11:09:06.912Z,11.51
2022-09-15T11:12:44.049Z,11.52
2022-09-15T11:16:29.023Z,11.52
2022-09-15T11:19:35.177Z,11.45
2022-09-15T11:22:49.449Z,11.48
2022-09-15T11:26:05.056Z,11.48
2022-09-15T11:29:38.091Z,11.52
2022-09-15T11:32:52.860Z,11.53
2022-09-15T11:36:04.387Z,11.53
2022-09-15T11:39:17.629Z,11.49
2022-09-15T11:42:31.519Z,11.45
2022-09-15T11:45:46.994Z,11.46
2022-09-15T11:49:05.274Z,11.48
2022-09-15T11:52:15.785Z,11.44
2022-09-15T11:55:28.861Z,11.41
2022-09-15T11:58:45.006Z,11.41
2022-09-15T12:01:51.622Z,11.38
2022-09-15T12:05:14.955Z,11.29
2022-09-15T12:08:28.184Z,11.19
2022-09-15T12:11:39.321Z,11.23
2022-09-15T12:14:48.623Z,11.25
2022-09-15T12:18:06.431Z,11.24
2022-09-15T12:21:39.510Z,11.26
2022-09-15T12:25:07.479Z,11.29
2022-09-15T12:28:23.283Z,11.29
2022-09-15T12:31:37.188Z,11.24
2022-09-15T12:34:40.194Z,11.19
2022-09-15T12:37:47.689Z,11.26
2022-09-15T12:41:00.063Z,11.25
2022-09-15T12:44:13.358Z,11.26
2022-09-15T12:47:29.197Z,11.22
2022-09-15T12:50:37.395Z,11.19
2022-09-15T12:53:53.499Z,11.15
2022-09-15T12:56:58.679Z,11.10
2022-09-15T13:00:33.427Z,11.17
2022-09-15T13:07:20.384Z,11.23
2022-09-15T13:10:31.150Z,11.07
2022-09-15T13:13:53.157Z,11.14
2022-09-15T13:17:08.097Z,11.16
2022-09-15T13:20:19.071Z,11.18
2022-09-15T13:23:26.663Z,11.11
2022-09-15T13:26:32.693Z,11.09
2022-09-15T13:29:48.089Z,11.06
2022-09-15T13:32:57.614Z,11.05
2022-09-15T13:40:46.394Z,11.09
2022-09-15T13:44:13.084Z,11.03
2022-09-15T13:47:16.010Z,11.04
2022-09-15T13:50:26.515Z,11.03
2022-09-15T13:53:48.185Z,11.04
2022-09-15T13:56:54.208Z,10.92
2022-09-15T13:59:58.652Z,10.81
2022-09-15T14:03:12.735Z,10.80
2022-09-15T14:06:21.722Z,10.77
2022-09-15T14:09:29.320Z,10.79
2022-09-15T14:12:35.932Z,10.78
2022-09-15T14:15:40.108Z,10.75
2022-09-15T14:18:44.976Z,10.77
2022-09-15T14:21:56.232Z,10.77
2022-09-15T14:25:07.568Z,10.80
2022-09-15T14:28:20.361Z,10.82
2022-09-15T14:31:37.472Z,10.78
2022-09-15T14:34:43.244Z,10.73
2022-09-15T14:38:04.699Z,10.77
2022-09-15T14:41:20.287Z,10.73
2022-09-15T14:48:15.837Z,10.75
2022-09-15T14:51:25.894Z,10.82
2022-09-15T14:54:37.295Z,10.88
2022-09-15T15:01:10.899Z,10.85
2022-09-15T15:04:21.203Z,10.79
2022-09-15T15:07:29.749Z,10.75
2022-09-15T15:10:36.001Z,10.74
2022-09-15T15:13:43.137Z,10.69
2022-09-15T15:17:02.878Z,10.68
2022-09-15T15:20:09.621Z,10.69
2022-09-15T15:23:29.223Z,10.66
2022-09-15T15:26:38.703Z,10.63
2022-09-15T15:29:46.994Z,10.63
2022-09-15T15:32:50.140Z,10.62
2022-09-15T15:36:08.138Z,10.66
2022-09-15T15:39:25.106Z,10.64
2022-09-15T15:42:29.869Z,10.59
2022-09-15T15:45:47.973Z,10.67
2022-09-15T15:48:53.371Z,10.63
2022-09-15T15:51:58.996Z,10.63
2022-09-15T15:55:01.997Z,10.66
2022-09-15T15:58:06.105Z,10.68
2022-09-15T16:01:12.888Z,10.74
2022-09-15T16:04:16.625Z,10.67
2022-09-15T16:07:23.779Z,10.58
2022-09-15T16:10:30.596Z,10.57
2022-09-15T16:13:33.585Z,10.61
2022-09-15T16:16:36.613Z,10.62
2022-09-15T16:19:40.962Z,10.68
2022-09-15T16:22:44.844Z,10.64
2022-09-15T16:26:03.489Z,10.64
2022-09-15T16:29:06.944Z,10.56
2022-09-15T16:32:31.967Z,10.66
2022-09-15T16:35:57.047Z,10.64
2022-09-15T16:39:00.310Z,10.59
2022-09-15T16:42:04.105Z,10.67
2022-09-15T16:45:36.601Z,10.71
2022-09-15T16:48:44.575Z,10.66
2022-09-15T16:51:48.459Z,10.57
2022-09-15T16:54:52.101Z,10.51
2022-09-15T16:57:56.132Z,10.51
2022-09-15T17:00:59.682Z,10.47
2022-09-15T17:04:03.988Z,10.49
2022-09-15T17:07:06.921Z,10.45
2022-09-15T17:10:09.956Z,10.44
2022-09-15T17:13:18.789Z,10.43
2022-09-15T17:16:22.031Z,10.39
2022-09-15T17:19:25.278Z,10.42
2022-09-15T17:22:28.447Z,10.43
2022-09-15T17:25:36.492Z,10.40
2022-09-15T17:28:40.066Z,10.42
2022-09-15T17:31:43.402Z,10.45
2022-09-15T17:34:47.160Z,10.54
2022-09-15T17:37:51.872Z,10.59
2022-09-15T17:40:58.122Z,10.61
2022-09-15T17:44:01.223Z,10.56
2022-09-15T17:47:04.444Z,10.56
2022-09-15T17:50:08.084Z,10.53
2022-09-15T17:53:14.064Z,10.54
2022-09-15T17:56:17.752Z,10.54
2022-09-15T17:59:20.705Z,10.48
2022-09-15T18:02:24.672Z,10.43
2022-09-15T18:05:34.456Z,10.44
2022-09-15T18:08:38.613Z,10.46
2022-09-15T18:11:41.667Z,10.42
2022-09-15T18:14:45.208Z,10.39
2022-09-15T18:17:53.255Z,10.40
2022-09-15T18:20:58.793Z,10.44
2022-09-15T18:24:02.688Z,10.44
2022-09-15T18:27:07.208Z,10.45
2022-09-15T18:30:11.892Z,10.46
2022-09-15T18:33:20.679Z,10.49
2022-09-15T18:36:24.378Z,10.54
2022-09-15T18:39:27.841Z,10.53
2022-09-15T18:42:32.052Z,10.52
2022-09-15T18:45:35.638Z,10.47
2022-09-15T18:48:38.651Z,10.46
2022-09-15T18:51:57.782Z,10.37
2022-09-15T18:55:15.215Z,10.39
2022-09-15T18:58:20.279Z,10.30
2022-09-15T19:01:24.052Z,10.31
2022-09-15T19:04:31.840Z,10.36
2022-09-15T19:07:37.351Z,10.44
2022-09-15T19:10:43.515Z,10.51
2022-09-15T19:13:47.206Z,10.51
2022-09-15T19:16:57.746Z,10.50
2022-09-15T19:20:02.357Z,10.48
2022-09-15T19:23:05.598Z,10.37
2022-09-15T19:26:16.379Z,10.32
2022-09-15T19:29:19.825Z,10.30
2022-09-15T19:32:23.282Z,10.33
2022-09-15T19:35:26.945Z,10.39
2022-09-15T19:38:30.641Z,10.41
2022-09-15T19:41:34.360Z,10.41
2022-09-15T19:44:37.921Z,10.31
2022-09-15T19:47:41.114Z,10.27
2022-09-15T19:50:44.439Z,10.24
2022-09-15T19:53:48.110Z,10.17
2022-09-15T19:56:52.716Z,10.14
2022-09-15T19:59:55.674Z,10.16
2022-09-15T20:02:58.932Z,10.21
2022-09-15T20:06:06.384Z,10.23
2022-09-15T20:09:11.162Z,10.25
2022-09-15T20:12:15.077Z,10.28
2022-09-15T20:15:19.401Z,10.27
2022-09-15T20:18:23.297Z,10.20
2022-09-15T20:21:49.258Z,10.13
2022-09-15T20:24:53.081Z,10.11
2022-09-15T20:27:57.292Z,10.07
2022-09-15T20:31:06.247Z,10.10
2022-09-15T20:34:10.015Z,10.05
2022-09-15T20:37:14.059Z,10.01
2022-09-15T20:40:17.933Z,9.91
2022-09-15T20:43:22.352Z,9.85
2022-09-15T20:46:26.381Z,9.80
2022-09-15T20:49:30.465Z,9.80
2022-09-15T20:52:38.283Z,9.87
2022-09-15T20:55:49.542Z,9.95
2022-09-15T20:58:54.274Z,9.90
2022-09-15T21:01:58.180Z,9.89
2022-09-15T21:05:01.287Z,9.89
2022-09-15T21:08:04.480Z,9.84
2022-09-15T21:11:11.558Z,9.83
2022-09-15T21:14:15.608Z,9.79
2022-09-15T21:17:19.336Z,9.79
2022-09-15T21:20:23.188Z,9.74
2022-09-15T21:23:27.828Z,9.70
2022-09-15T21:26:36.481Z,9.72
2022-09-15T21:29:39.872Z,9.69
2022-09-15T21:32:42.969Z,9.79
2022-09-15T21:35:49.982Z,9.81
2022-09-15T21:38:55.092Z,9.77
2022-09-15T21:41:58.593Z,9.74
2022-09-15T21:45:02.235Z,9.72
2022-09-15T21:48:05.958Z,9.76
2022-09-15T21:51:11.007Z,9.75
2022-09-15T21:54:14.418Z,9.78
2022-09-15T21:57:17.494Z,9.76
2022-09-15T22:00:21.289Z,9.77
2022-09-15T22:03:24.577Z,9.78
2022-09-15T22:06:34.127Z,9.81
2022-09-15T22:09:39.214Z,9.82
2022-09-15T22:12:42.530Z,9.84
2022-09-15T22:15:45.494Z,9.80
2022-09-15T22:18:50.355Z,9.76
2022-09-15T22:21:53.730Z,9.71
2022-09-15T22:24:56.674Z,9.71
2022-09-15T22:27:59.645Z,9.66
2022-09-15T22:31:05.649Z,9.70
2022-09-15T22:34:09.128Z,9.80
2022-09-15T22:37:12.078Z,9.88
2022-09-15T22:40:17.885Z,9.88
2022-09-15T22:43:22.221Z,9.85
2022-09-15T22:46:26.788Z,9.89
2022-09-15T22:49:30.014Z,9.93
2022-09-15T22:52:33.294Z,9.90
2022-09-15T22:55:36.339Z,9.94
2022-09-15T22:58:44.199Z,9.99
2022-09-15T23:01:48.060Z,9.90
2022-09-15T23:04:51.369Z,9.82
2022-09-15T23:07:54.391Z,9.89
2022-09-15T23:11:03.455Z,10.04
2022-09-15T23:14:08.151Z,10.02
2022-09-15T23:17:11.451Z,9.96
2022-09-15T23:20:15.049Z,10.03
2022-09-15T23:23:18.349Z,10.07
2022-09-15T23:26:24.323Z,10.10
2022-09-15T23:29:27.738Z,10.13
2022-09-15T23:32:31.327Z,10.14
2022-09-15T23:35:34.533Z,10.21
2022-09-15T23:38:40.345Z,10.27
2022-09-15T23:41:44.594Z,10.16
2022-09-15T23:44:48.342Z,10.09
2022-09-15T23:47:52.597Z,10.14
2022-09-15T23:50:56.334Z,10.20
2022-09-15T23:54:00.320Z,10.29
2022-09-15T23:57:04.116Z,10.31
